Biggs Army Air Field (Fort Bliss)
KBIF : now visible

Airfield :











YOU CAN JOIN US ON...

 
LOGIN :

Register | Disclaimer

   EN    FR    IT 

 









Legend :    VFR   Marginal VFR   IFR   Intensive IFR   Very Intensive IFR
Visi :
Ceiling :
>= 8 km
>= 3000ft
5 to 8 km
1000 to 3000 ft
1500m to 5 km
500 to 1000 ft
800 to 1500m
200 to 500 ft
< 800m
< 200 ft
Symbols :   Thunderstorms  Fog  Heavy snow  Heavy precipitations  Wind > 20 kt






- Airport Elevation : 3946 ft


KBIF - Biggs Army Air Field (Fort Bliss)

CURRENT METAR :
  • 130458Z AUTO 24005KT 10SM CLR 21/M06 A2989 RMK AO2 SLP061 T02111057 $

EXPIRED METARs :
  • 130358Z AUTO 11012KT 10SM CLR 22/M06 A2984 RMK AO2 SLP046 T02231056 $
  • 130258Z AUTO 14006KT 10SM CLR 25/M06 A2982 RMK AO2 SLP035 T02481065 53012 $

TAF TAF KBIF
Valid from the 12 at 22:00 until the 14 at 04:00 UTC


122207Z 1222/1404 25012G19KT 9999 SKC QNH2978INS
BECMG 1223/1224 23012G18KT 9999 SKC QNH2976INS
BECMG 1302/1303 VRB06KT 9999 SCT180 QNH2978INS
BECMG 1310/1311 VRB06KT 9999 SKC QNH2990INS
BECMG 1319/1320 18012KT 9999 SKC QNH2991INS TX30/1222Z TN10/1313Z
KZAB FIR / North America



MET'MAP, your aeronautical weather chart ! - Copyright ORBIFLY December 2007 - Disclaimer

ORBIFLY MET'MAP TEAM :

Programming & Development : Alexandra Zaïnal
Concept & original design : Baudouin d'Aumeries
Assistance for programming : Marc-Olivier Méhu
Technical & hardware support : Manuel Goepfert

Contact : metmap@orbifly.com




SOURCES & CREDITS :

   NOAA       Earth
Advisory